sensor_id;sensor_type;location;lat;lon;timestamp;temperature;humidity
39925;DHT22;25592;49.986;11.618;2022-09-29T00:01:06;11.10;95.70
39925;DHT22;25592;49.986;11.618;2022-09-29T00:03:52;11.10;95.80
39925;DHT22;25592;49.986;11.618;2022-09-29T00:06:37;11.10;95.70
39925;DHT22;25592;49.986;11.618;2022-09-29T00:09:23;11.10;95.70
39925;DHT22;25592;49.986;11.618;2022-09-29T00:12:08;11.10;95.80
39925;DHT22;25592;49.986;11.618;2022-09-29T00:14:54;11.10;95.80
39925;DHT22;25592;49.986;11.618;2022-09-29T00:17:39;11.10;95.80
39925;DHT22;25592;49.986;11.618;2022-09-29T00:20:44;11.00;95.70
39925;DHT22;25592;49.986;11.618;2022-09-29T00:23:39;11.00;95.80
39925;DHT22;25592;49.986;11.618;2022-09-29T00:26:24;10.90;95.80
39925;DHT22;25592;49.986;11.618;2022-09-29T00:29:10;10.90;95.80
39925;DHT22;25592;49.986;11.618;2022-09-29T00:31:55;10.90;95.90
39925;DHT22;25592;49.986;11.618;2022-09-29T00:34:41;10.90;96.00
39925;DHT22;25592;49.986;11.618;2022-09-29T00:37:26;10.90;96.10
39925;DHT22;25592;49.986;11.618;2022-09-29T00:40:12;10.90;96.00
39925;DHT22;25592;49.986;11.618;2022-09-29T00:42:57;10.90;96.10
39925;DHT22;25592;49.986;11.618;2022-09-29T00:45:42;11.00;96.00
39925;DHT22;25592;49.986;11.618;2022-09-29T00:48:30;11.00;96.10
39925;DHT22;25592;49.986;11.618;2022-09-29T00:51:17;11.00;96.00
39925;DHT22;25592;49.986;11.618;2022-09-29T00:54:05;11.00;96.00
39925;DHT22;25592;49.986;11.618;2022-09-29T00:56:51;11.00;96.00
39925;DHT22;25592;49.986;11.618;2022-09-29T01:02:43;11.00;96.00
39925;DHT22;25592;49.986;11.618;2022-09-29T01:05:36;11.00;96.10
39925;DHT22;25592;49.986;11.618;2022-09-29T01:11:29;11.10;96.20
39925;DHT22;25592;49.986;11.618;2022-09-29T01:14:15;11.00;96.30
39925;DHT22;25592;49.986;11.618;2022-09-29T01:17:01;10.90;96.40
39925;DHT22;25592;49.986;11.618;2022-09-29T01:20:18;10.90;96.40
39925;DHT22;25592;49.986;11.618;2022-09-29T01:27:06;11.00;96.60
39925;DHT22;25592;49.986;11.618;2022-09-29T01:30:11;10.90;96.60
39925;DHT22;25592;49.986;11.618;2022-09-29T01:36:09;10.90;96.70
39925;DHT22;25592;49.986;11.618;2022-09-29T01:42:18;11.00;96.50
39925;DHT22;25592;49.986;11.618;2022-09-29T01:45:17;11.00;96.60
39925;DHT22;25592;49.986;11.618;2022-09-29T01:48:09;11.00;96.60
39925;DHT22;25592;49.986;11.618;2022-09-29T01:51:00;11.00;96.60
39925;DHT22;25592;49.986;11.618;2022-09-29T01:53:51;11.00;96.60
39925;DHT22;25592;49.986;11.618;2022-09-29T01:56:52;11.00;96.60
39925;DHT22;25592;49.986;11.618;2022-09-29T02:00:05;11.00;96.60
39925;DHT22;25592;49.986;11.618;2022-09-29T02:03:26;11.00;96.50
39925;DHT22;25592;49.986;11.618;2022-09-29T02:06:25;11.00;96.50
39925;DHT22;25592;49.986;11.618;2022-09-29T02:09:18;10.90;96.60
39925;DHT22;25592;49.986;11.618;2022-09-29T02:12:05;10.90;96.60
39925;DHT22;25592;49.986;11.618;2022-09-29T02:14:53;10.90;96.60
39925;DHT22;25592;49.986;11.618;2022-09-29T02:17:43;10.90;96.40
39925;DHT22;25592;49.986;11.618;2022-09-29T02:20:29;11.00;96.40
39925;DHT22;25592;49.986;11.618;2022-09-29T02:23:15;10.90;96.70
39925;DHT22;25592;49.986;11.618;2022-09-29T02:26:01;10.90;96.60
39925;DHT22;25592;49.986;11.618;2022-09-29T02:28:47;10.90;96.70
39925;DHT22;25592;49.986;11.618;2022-09-29T02:31:35;10.90;96.60
39925;DHT22;25592;49.986;11.618;2022-09-29T02:34:21;10.90;96.80
39925;DHT22;25592;49.986;11.618;2022-09-29T02:37:29;10.80;96.60
39925;DHT22;25592;49.986;11.618;2022-09-29T02:43:44;10.80;96.50
39925;DHT22;25592;49.986;11.618;2022-09-29T02:46:54;10.80;96.70
39925;DHT22;25592;49.986;11.618;2022-09-29T02:50:24;10.80;96.60
39925;DHT22;25592;49.986;11.618;2022-09-29T02:53:31;10.80;96.60
39925;DHT22;25592;49.986;11.618;2022-09-29T02:59:55;10.90;96.40
39925;DHT22;25592;49.986;11.618;2022-09-29T03:02:43;10.90;96.50
39925;DHT22;25592;49.986;11.618;2022-09-29T03:05:28;10.90;96.60
39925;DHT22;25592;49.986;11.618;2022-09-29T03:08:14;10.90;96.70
39925;DHT22;25592;49.986;11.618;2022-09-29T03:10:59;10.90;96.70
39925;DHT22;25592;49.986;11.618;2022-09-29T03:13:45;10.80;96.70
39925;DHT22;25592;49.986;11.618;2022-09-29T03:16:31;10.80;96.60
39925;DHT22;25592;49.986;11.618;2022-09-29T03:19:16;10.90;96.70
39925;DHT22;25592;49.986;11.618;2022-09-29T03:22:02;10.90;96.70
39925;DHT22;25592;49.986;11.618;2022-09-29T03:24:47;10.90;96.70
39925;DHT22;25592;49.986;11.618;2022-09-29T03:27:33;10.80;96.80
39925;DHT22;25592;49.986;11.618;2022-09-29T03:30:20;10.80;96.90
39925;DHT22;25592;49.986;11.618;2022-09-29T03:33:07;10.80;96.90
39925;DHT22;25592;49.986;11.618;2022-09-29T03:35:52;10.80;97.10
39925;DHT22;25592;49.986;11.618;2022-09-29T03:38:38;10.80;97.00
39925;DHT22;25592;49.986;11.618;2022-09-29T03:41:23;10.80;97.00
39925;DHT22;25592;49.986;11.618;2022-09-29T03:44:08;10.80;97.10
39925;DHT22;25592;49.986;11.618;2022-09-29T03:46:54;10.80;97.00
39925;DHT22;25592;49.986;11.618;2022-09-29T03:49:39;10.80;97.10
39925;DHT22;25592;49.986;11.618;2022-09-29T03:52:24;10.80;97.10
39925;DHT22;25592;49.986;11.618;2022-09-29T03:55:10;10.80;97.10
39925;DHT22;25592;49.986;11.618;2022-09-29T03:57:55;10.80;97.00
39925;DHT22;25592;49.986;11.618;2022-09-29T04:00:40;10.80;96.80
39925;DHT22;25592;49.986;11.618;2022-09-29T04:03:27;10.80;96.80
39925;DHT22;25592;49.986;11.618;2022-09-29T04:06:12;10.80;96.80
39925;DHT22;25592;49.986;11.618;2022-09-29T04:08:58;10.80;96.60
39925;DHT22;25592;49.986;11.618;2022-09-29T04:11:43;10.70;96.60
39925;DHT22;25592;49.986;11.618;2022-09-29T04:14:28;10.70;96.70
39925;DHT22;25592;49.986;11.618;2022-09-29T04:17:14;10.60;96.70
39925;DHT22;25592;49.986;11.618;2022-09-29T04:19:59;10.60;96.70
39925;DHT22;25592;49.986;11.618;2022-09-29T04:22:45;10.60;96.60
39925;DHT22;25592;49.986;11.618;2022-09-29T04:25:31;10.70;96.60
39925;DHT22;25592;49.986;11.618;2022-09-29T04:28:16;10.60;96.50
39925;DHT22;25592;49.986;11.618;2022-09-29T04:31:02;10.60;96.70
39925;DHT22;25592;49.986;11.618;2022-09-29T04:33:47;10.50;96.80
39925;DHT22;25592;49.986;11.618;2022-09-29T04:36:33;10.50;96.80
39925;DHT22;25592;49.986;11.618;2022-09-29T04:39:18;10.60;96.90
39925;DHT22;25592;49.986;11.618;2022-09-29T04:42:04;10.60;96.80
39925;DHT22;25592;49.986;11.618;2022-09-29T04:44:49;10.60;96.50
39925;DHT22;25592;49.986;11.618;2022-09-29T04:47:36;10.60;96.70
39925;DHT22;25592;49.986;11.618;2022-09-29T04:50:21;10.60;96.60
39925;DHT22;25592;49.986;11.618;2022-09-29T04:53:08;10.60;96.70
39925;DHT22;25592;49.986;11.618;2022-09-29T04:55:54;10.60;96.70
39925;DHT22;25592;49.986;11.618;2022-09-29T04:58:40;10.60;96.90
39925;DHT22;25592;49.986;11.618;2022-09-29T05:01:25;10.60;97.00
39925;DHT22;25592;49.986;11.618;2022-09-29T05:04:11;10.60;99.00
39925;DHT22;25592;49.986;11.618;2022-09-29T05:06:57;10.70;97.30
39925;DHT22;25592;49.986;11.618;2022-09-29T05:09:43;10.70;97.20
39925;DHT22;25592;49.986;11.618;2022-09-29T05:12:28;10.70;98.60
39925;DHT22;25592;49.986;11.618;2022-09-29T05:15:13;10.70;97.30
39925;DHT22;25592;49.986;11.618;2022-09-29T05:18:02;10.60;97.00
39925;DHT22;25592;49.986;11.618;2022-09-29T05:20:48;10.60;97.20
39925;DHT22;25592;49.986;11.618;2022-09-29T05:23:53;10.60;99.60
39925;DHT22;25592;49.986;11.618;2022-09-29T05:26:39;10.70;97.90
39925;DHT22;25592;49.986;11.618;2022-09-29T05:29:24;10.60;97.40
39925;DHT22;25592;49.986;11.618;2022-09-29T05:32:10;10.70;97.60
39925;DHT22;25592;49.986;11.618;2022-09-29T05:34:56;10.70;97.50
39925;DHT22;25592;49.986;11.618;2022-09-29T05:37:41;10.70;97.50
39925;DHT22;25592;49.986;11.618;2022-09-29T05:40:27;10.70;97.50
39925;DHT22;25592;49.986;11.618;2022-09-29T05:43:12;10.70;97.60
39925;DHT22;25592;49.986;11.618;2022-09-29T05:46:02;10.70;97.50
39925;DHT22;25592;49.986;11.618;2022-09-29T05:48:49;10.60;97.70
39925;DHT22;25592;49.986;11.618;2022-09-29T05:51:35;10.70;97.70
39925;DHT22;25592;49.986;11.618;2022-09-29T05:54:20;10.70;97.70
39925;DHT22;25592;49.986;11.618;2022-09-29T05:57:06;10.70;97.60
39925;DHT22;25592;49.986;11.618;2022-09-29T05:59:52;10.70;97.70
39925;DHT22;25592;49.986;11.618;2022-09-29T06:02:37;10.70;97.70
39925;DHT22;25592;49.986;11.618;2022-09-29T06:05:22;10.70;97.90
39925;DHT22;25592;49.986;11.618;2022-09-29T06:08:08;10.60;97.80
39925;DHT22;25592;49.986;11.618;2022-09-29T06:10:54;10.60;97.50
39925;DHT22;25592;49.986;11.618;2022-09-29T06:13:47;10.60;97.50
39925;DHT22;25592;49.986;11.618;2022-09-29T06:16:33;10.60;97.60
39925;DHT22;25592;49.986;11.618;2022-09-29T06:19:19;10.60;97.70
39925;DHT22;25592;49.986;11.618;2022-09-29T06:22:04;10.60;97.60
39925;DHT22;25592;49.986;11.618;2022-09-29T06:24:49;10.60;97.60
39925;DHT22;25592;49.986;11.618;2022-09-29T06:27:35;10.70;99.90
39925;DHT22;25592;49.986;11.618;2022-09-29T06:30:20;11.00;98.90
39925;DHT22;25592;49.986;11.618;2022-09-29T06:33:05;11.10;98.80
39925;DHT22;25592;49.986;11.618;2022-09-29T06:35:51;11.10;98.10
39925;DHT22;25592;49.986;11.618;2022-09-29T06:38:55;11.10;98.20
39925;DHT22;25592;49.986;11.618;2022-09-29T06:41:41;11.00;98.30
39925;DHT22;25592;49.986;11.618;2022-09-29T06:44:32;10.90;98.30
39925;DHT22;25592;49.986;11.618;2022-09-29T06:47:18;10.90;98.70
39925;DHT22;25592;49.986;11.618;2022-09-29T06:50:04;10.90;98.70
39925;DHT22;25592;49.986;11.618;2022-09-29T06:52:54;10.90;98.60
39925;DHT22;25592;49.986;11.618;2022-09-29T06:55:55;11.00;98.50
39925;DHT22;25592;49.986;11.618;2022-09-29T06:58:40;10.80;98.80
39925;DHT22;25592;49.986;11.618;2022-09-29T07:01:26;10.90;98.70
39925;DHT22;25592;49.986;11.618;2022-09-29T07:04:11;10.90;98.80
39925;DHT22;25592;49.986;11.618;2022-09-29T07:06:56;10.80;98.60
39925;DHT22;25592;49.986;11.618;2022-09-29T07:09:42;10.70;98.70
39925;DHT22;25592;49.986;11.618;2022-09-29T07:12:27;10.70;98.90
39925;DHT22;25592;49.986;11.618;2022-09-29T07:15:13;10.70;99.20
39925;DHT22;25592;49.986;11.618;2022-09-29T07:17:59;10.70;99.30
39925;DHT22;25592;49.986;11.618;2022-09-29T07:20:44;10.70;99.50
39925;DHT22;25592;49.986;11.618;2022-09-29T07:23:30;10.70;99.40
39925;DHT22;25592;49.986;11.618;2022-09-29T07:26:16;10.90;99.20
39925;DHT22;25592;49.986;11.618;2022-09-29T07:29:02;11.00;99.20
39925;DHT22;25592;49.986;11.618;2022-09-29T07:31:47;10.90;99.30
39925;DHT22;25592;49.986;11.618;2022-09-29T07:34:37;10.80;99.50
39925;DHT22;25592;49.986;11.618;2022-09-29T07:37:22;10.80;99.90
39925;DHT22;25592;49.986;11.618;2022-09-29T07:40:08;11.00;99.90
39925;DHT22;25592;49.986;11.618;2022-09-29T07:42:53;11.20;99.80
39925;DHT22;25592;49.986;11.618;2022-09-29T07:45:47;11.20;99.60
39925;DHT22;25592;49.986;11.618;2022-09-29T07:48:35;11.40;99.30
39925;DHT22;25592;49.986;11.618;2022-09-29T07:51:20;11.30;99.00
39925;DHT22;25592;49.986;11.618;2022-09-29T07:54:06;11.30;99.30
39925;DHT22;25592;49.986;11.618;2022-09-29T07:56:51;11.30;99.30
39925;DHT22;25592;49.986;11.618;2022-09-29T07:59:37;11.30;99.30
39925;DHT22;25592;49.986;11.618;2022-09-29T08:02:31;11.40;99.50
39925;DHT22;25592;49.986;11.618;2022-09-29T08:05:16;11.60;99.50
39925;DHT22;25592;49.986;11.618;2022-09-29T08:08:03;11.60;98.80
39925;DHT22;25592;49.986;11.618;2022-09-29T08:10:48;11.60;99.30
39925;DHT22;25592;49.986;11.618;2022-09-29T08:13:38;11.60;98.90
39925;DHT22;25592;49.986;11.618;2022-09-29T08:16:24;11.80;98.80
39925;DHT22;25592;49.986;11.618;2022-09-29T08:19:10;11.70;98.60
39925;DHT22;25592;49.986;11.618;2022-09-29T08:21:55;11.60;98.70
39925;DHT22;25592;49.986;11.618;2022-09-29T08:24:41;11.40;99.00
39925;DHT22;25592;49.986;11.618;2022-09-29T08:27:27;11.40;99.30
39925;DHT22;25592;49.986;11.618;2022-09-29T08:30:13;11.50;99.20
39925;DHT22;25592;49.986;11.618;2022-09-29T08:32:58;11.70;99.10
39925;DHT22;25592;49.986;11.618;2022-09-29T08:35:43;11.80;99.30
39925;DHT22;25592;49.986;11.618;2022-09-29T08:38:30;11.90;98.60
39925;DHT22;25592;49.986;11.618;2022-09-29T08:44:39;12.00;98.70
39925;DHT22;25592;49.986;11.618;2022-09-29T08:47:31;12.10;98.50
39925;DHT22;25592;49.986;11.618;2022-09-29T08:50:35;12.10;98.50
39925;DHT22;25592;49.986;11.618;2022-09-29T08:53:22;12.10;98.60
39925;DHT22;25592;49.986;11.618;2022-09-29T08:56:16;12.20;98.50
39925;DHT22;25592;49.986;11.618;2022-09-29T08:59:01;12.20;98.40
39925;DHT22;25592;49.986;11.618;2022-09-29T09:09:04;12.50;98.10
39925;DHT22;25592;49.986;11.618;2022-09-29T09:21:07;13.10;97.40
39925;DHT22;25592;49.986;11.618;2022-09-29T09:23:56;13.20;97.40
39925;DHT22;25592;49.986;11.618;2022-09-29T09:26:46;13.20;97.30
39925;DHT22;25592;49.986;11.618;2022-09-29T09:29:37;13.40;97.10
39925;DHT22;25592;49.986;11.618;2022-09-29T09:32:29;13.50;96.70
39925;DHT22;25592;49.986;11.618;2022-09-29T09:35:31;13.50;96.60
39925;DHT22;25592;49.986;11.618;2022-09-29T09:38:22;13.70;96.10
39925;DHT22;25592;49.986;11.618;2022-09-29T09:41:13;13.80;96.20
39925;DHT22;25592;49.986;11.618;2022-09-29T09:44:21;14.00;95.80
39925;DHT22;25592;49.986;11.618;2022-09-29T09:47:23;14.10;95.90
39925;DHT22;25592;49.986;11.618;2022-09-29T09:50:22;14.30;95.60
39925;DHT22;25592;49.986;11.618;2022-09-29T09:53:13;14.50;95.70
39925;DHT22;25592;49.986;11.618;2022-09-29T09:56:31;14.70;95.10
39925;DHT22;25592;49.986;11.618;2022-09-29T10:02:56;15.00;94.50
39925;DHT22;25592;49.986;11.618;2022-09-29T10:05:44;15.10;94.90
39925;DHT22;25592;49.986;11.618;2022-09-29T10:08:32;15.20;94.50
39925;DHT22;25592;49.986;11.618;2022-09-29T10:11:28;15.30;94.10
39925;DHT22;25592;49.986;11.618;2022-09-29T10:14:24;15.30;94.40
39925;DHT22;25592;49.986;11.618;2022-09-29T10:17:11;15.50;94.20
39925;DHT22;25592;49.986;11.618;2022-09-29T10:20:00;15.60;93.80
39925;DHT22;25592;49.986;11.618;2022-09-29T10:22:47;15.90;93.30
39925;DHT22;25592;49.986;11.618;2022-09-29T10:25:36;15.80;92.20
39925;DHT22;25592;49.986;11.618;2022-09-29T10:28:22;15.90;91.00
39925;DHT22;25592;49.986;11.618;2022-09-29T10:31:21;15.90;91.60
39925;DHT22;25592;49.986;11.618;2022-09-29T10:34:21;15.70;91.70
39925;DHT22;25592;49.986;11.618;2022-09-29T10:37:18;15.60;90.80
39925;DHT22;25592;49.986;11.618;2022-09-29T10:42:55;15.50;90.70
39925;DHT22;25592;49.986;11.618;2022-09-29T10:45:46;15.80;91.60
39925;DHT22;25592;49.986;11.618;2022-09-29T10:48:32;16.10;91.10
39925;DHT22;25592;49.986;11.618;2022-09-29T10:51:21;16.40;90.60
39925;DHT22;25592;49.986;11.618;2022-09-29T10:54:13;16.70;90.30
39925;DHT22;25592;49.986;11.618;2022-09-29T10:56:59;16.70;89.90
39925;DHT22;25592;49.986;11.618;2022-09-29T10:59:56;16.90;89.90
39925;DHT22;25592;49.986;11.618;2022-09-29T11:02:42;16.90;88.70
39925;DHT22;25592;49.986;11.618;2022-09-29T11:05:28;16.80;89.80
39925;DHT22;25592;49.986;11.618;2022-09-29T11:08:13;16.90;89.40
39925;DHT22;25592;49.986;11.618;2022-09-29T11:11:19;17.00;89.10
39925;DHT22;25592;49.986;11.618;2022-09-29T11:14:56;17.00;86.80
39925;DHT22;25592;49.986;11.618;2022-09-29T11:17:37;16.70;86.50
39925;DHT22;25592;49.986;11.618;2022-09-29T11:20:27;16.20;87.50
39925;DHT22;25592;49.986;11.618;2022-09-29T11:23:54;16.00;90.10
39925;DHT22;25592;49.986;11.618;2022-09-29T11:26:53;16.00;90.30
39925;DHT22;25592;49.986;11.618;2022-09-29T11:30:00;15.90;90.40
39925;DHT22;25592;49.986;11.618;2022-09-29T11:33:15;15.80;90.60
39925;DHT22;25592;49.986;11.618;2022-09-29T11:36:25;15.50;91.70
39925;DHT22;25592;49.986;11.618;2022-09-29T11:45:41;14.60;94.30
39925;DHT22;25592;49.986;11.618;2022-09-29T12:04:18;13.90;95.60
39925;DHT22;25592;49.986;11.618;2022-09-29T12:07:35;13.90;95.50
39925;DHT22;25592;49.986;11.618;2022-09-29T12:10:45;14.10;95.30
39925;DHT22;25592;49.986;11.618;2022-09-29T12:13:44;14.20;95.30
39925;DHT22;25592;49.986;11.618;2022-09-29T12:16:36;14.10;94.90
39925;DHT22;25592;49.986;11.618;2022-09-29T12:19:26;14.10;95.00
39925;DHT22;25592;49.986;11.618;2022-09-29T12:22:16;14.30;95.10
39925;DHT22;25592;49.986;11.618;2022-09-29T12:25:04;14.50;94.80
39925;DHT22;25592;49.986;11.618;2022-09-29T12:27:53;14.60;94.70
39925;DHT22;25592;49.986;11.618;2022-09-29T12:30:59;14.60;94.10
39925;DHT22;25592;49.986;11.618;2022-09-29T12:33:53;14.70;94.20
39925;DHT22;25592;49.986;11.618;2022-09-29T12:36:48;14.70;94.20
39925;DHT22;25592;49.986;11.618;2022-09-29T12:39:51;14.60;92.80
39925;DHT22;25592;49.986;11.618;2022-09-29T12:42:59;14.70;92.60
39925;DHT22;25592;49.986;11.618;2022-09-29T12:49:16;14.80;91.60
39925;DHT22;25592;49.986;11.618;2022-09-29T12:52:05;14.60;91.70
39925;DHT22;25592;49.986;11.618;2022-09-29T12:54:58;14.50;92.10
39925;DHT22;25592;49.986;11.618;2022-09-29T12:57:47;14.40;92.50
39925;DHT22;25592;49.986;11.618;2022-09-29T13:00:35;14.50;93.00
39925;DHT22;25592;49.986;11.618;2022-09-29T13:16:16;14.60;93.20
39925;DHT22;25592;49.986;11.618;2022-09-29T13:26:21;14.80;93.00
39925;DHT22;25592;49.986;11.618;2022-09-29T13:28:58;14.90;93.00
39925;DHT22;25592;49.986;11.618;2022-09-29T13:31:47;14.90;93.00
39925;DHT22;25592;49.986;11.618;2022-09-29T13:34:34;14.90;92.80
39925;DHT22;25592;49.986;11.618;2022-09-29T13:37:23;15.00;92.90
39925;DHT22;25592;49.986;11.618;2022-09-29T13:40:17;15.00;92.70
39925;DHT22;25592;49.986;11.618;2022-09-29T13:43:03;15.00;92.70
39925;DHT22;25592;49.986;11.618;2022-09-29T13:45:51;15.00;92.80
39925;DHT22;25592;49.986;11.618;2022-09-29T13:48:46;15.10;92.90
39925;DHT22;25592;49.986;11.618;2022-09-29T13:52:36;15.10;92.90
39925;DHT22;25592;49.986;11.618;2022-09-29T14:01:11;15.20;93.30
39925;DHT22;25592;49.986;11.618;2022-09-29T14:03:57;15.20;93.20
39925;DHT22;25592;49.986;11.618;2022-09-29T14:06:46;15.20;93.30
39925;DHT22;25592;49.986;11.618;2022-09-29T14:09:37;15.20;93.40
39925;DHT22;25592;49.986;11.618;2022-09-29T14:12:24;15.20;93.50
39925;DHT22;25592;49.986;11.618;2022-09-29T14:15:15;15.20;93.50
39925;DHT22;25592;49.986;11.618;2022-09-29T14:18:06;15.20;93.40
39925;DHT22;25592;49.986;11.618;2022-09-29T14:21:08;15.20;93.80
39925;DHT22;25592;49.986;11.618;2022-09-29T14:23:54;15.10;93.70
39925;DHT22;25592;49.986;11.618;2022-09-29T14:26:50;15.10;93.70
39925;DHT22;25592;49.986;11.618;2022-09-29T14:29:40;15.10;93.90
39925;DHT22;25592;49.986;11.618;2022-09-29T14:32:37;15.10;94.10
39925;DHT22;25592;49.986;11.618;2022-09-29T14:38:18;15.10;94.10
39925;DHT22;25592;49.986;11.618;2022-09-29T14:43:55;15.10;94.20
39925;DHT22;25592;49.986;11.618;2022-09-29T14:50:45;15.10;94.50
39925;DHT22;25592;49.986;11.618;2022-09-29T14:57:15;15.20;94.80
39925;DHT22;25592;49.986;11.618;2022-09-29T15:00:17;15.20;94.80
39925;DHT22;25592;49.986;11.618;2022-09-29T15:03:06;15.20;94.80
39925;DHT22;25592;49.986;11.618;2022-09-29T15:06:20;15.20;94.80
39925;DHT22;25592;49.986;11.618;2022-09-29T15:09:18;15.10;94.90
39925;DHT22;25592;49.986;11.618;2022-09-29T15:12:14;15.00;95.00
39925;DHT22;25592;49.986;11.618;2022-09-29T15:15:00;15.00;95.00
39925;DHT22;25592;49.986;11.618;2022-09-29T15:17:57;15.10;94.80
39925;DHT22;25592;49.986;11.618;2022-09-29T15:24:35;15.00;93.90
39925;DHT22;25592;49.986;11.618;2022-09-29T15:27:23;15.00;93.90
39925;DHT22;25592;49.986;11.618;2022-09-29T15:30:17;14.90;93.80
39925;DHT22;25592;49.986;11.618;2022-09-29T15:33:13;14.90;93.90
39925;DHT22;25592;49.986;11.618;2022-09-29T15:36:28;14.80;93.50
39925;DHT22;25592;49.986;11.618;2022-09-29T15:39:38;14.90;93.70
39925;DHT22;25592;49.986;11.618;2022-09-29T15:42:24;14.80;94.20
39925;DHT22;25592;49.986;11.618;2022-09-29T15:45:17;14.80;94.00
39925;DHT22;25592;49.986;11.618;2022-09-29T15:48:05;14.70;94.00
39925;DHT22;25592;49.986;11.618;2022-09-29T15:50:51;14.70;94.10
39925;DHT22;25592;49.986;11.618;2022-09-29T15:53:39;14.80;94.20
39925;DHT22;25592;49.986;11.618;2022-09-29T15:56:25;14.70;94.20
39925;DHT22;25592;49.986;11.618;2022-09-29T15:59:19;14.70;94.60
39925;DHT22;25592;49.986;11.618;2022-09-29T16:02:05;14.70;94.60
39925;DHT22;25592;49.986;11.618;2022-09-29T16:04:54;14.70;94.90
39925;DHT22;25592;49.986;11.618;2022-09-29T16:07:52;14.70;95.00
39925;DHT22;25592;49.986;11.618;2022-09-29T16:10:46;14.60;95.10
39925;DHT22;25592;49.986;11.618;2022-09-29T16:13:38;14.70;95.20
39925;DHT22;25592;49.986;11.618;2022-09-29T16:16:29;14.60;95.50
39925;DHT22;25592;49.986;11.618;2022-09-29T16:19:26;14.60;95.50
39925;DHT22;25592;49.986;11.618;2022-09-29T16:22:18;14.60;95.60
39925;DHT22;25592;49.986;11.618;2022-09-29T16:25:25;14.50;95.60
39925;DHT22;25592;49.986;11.618;2022-09-29T16:28:25;14.50;95.60
39925;DHT22;25592;49.986;11.618;2022-09-29T16:31:20;14.50;95.60
39925;DHT22;25592;49.986;11.618;2022-09-29T16:37:14;14.40;95.50
39925;DHT22;25592;49.986;11.618;2022-09-29T16:40:01;14.40;95.60
39925;DHT22;25592;49.986;11.618;2022-09-29T16:42:51;14.30;95.60
39925;DHT22;25592;49.986;11.618;2022-09-29T16:45:37;14.20;95.70
39925;DHT22;25592;49.986;11.618;2022-09-29T16:48:25;14.00;95.90
39925;DHT22;25592;49.986;11.618;2022-09-29T16:51:21;13.90;96.10
39925;DHT22;25592;49.986;11.618;2022-09-29T16:54:30;13.80;96.30
39925;DHT22;25592;49.986;11.618;2022-09-29T16:57:29;13.70;96.20
39925;DHT22;25592;49.986;11.618;2022-09-29T17:00:15;13.60;96.40
39925;DHT22;25592;49.986;11.618;2022-09-29T17:03:02;13.50;96.30
39925;DHT22;25592;49.986;11.618;2022-09-29T17:05:49;13.30;96.60
39925;DHT22;25592;49.986;11.618;2022-09-29T17:08:35;13.30;96.80
39925;DHT22;25592;49.986;11.618;2022-09-29T17:11:21;13.40;96.80
39925;DHT22;25592;49.986;11.618;2022-09-29T17:14:09;13.60;96.50
39925;DHT22;25592;49.986;11.618;2022-09-29T17:16:56;13.70;96.40
39925;DHT22;25592;49.986;11.618;2022-09-29T17:19:41;13.70;96.30
39925;DHT22;25592;49.986;11.618;2022-09-29T17:22:28;13.70;96.20
39925;DHT22;25592;49.986;11.618;2022-09-29T17:25:14;13.60;96.20
39925;DHT22;25592;49.986;11.618;2022-09-29T17:28:00;13.60;96.20
39925;DHT22;25592;49.986;11.618;2022-09-29T17:30:59;13.50;96.30
39925;DHT22;25592;49.986;11.618;2022-09-29T17:33:45;13.50;96.40
39925;DHT22;25592;49.986;11.618;2022-09-29T17:36:30;13.40;96.30
39925;DHT22;25592;49.986;11.618;2022-09-29T17:39:15;13.50;96.40
39925;DHT22;25592;49.986;11.618;2022-09-29T17:42:01;13.50;96.30
39925;DHT22;25592;49.986;11.618;2022-09-29T17:44:46;13.40;96.20
39925;DHT22;25592;49.986;11.618;2022-09-29T17:47:32;13.40;96.30
39925;DHT22;25592;49.986;11.618;2022-09-29T17:50:33;13.40;96.00
39925;DHT22;25592;49.986;11.618;2022-09-29T17:53:24;13.40;96.10
39925;DHT22;25592;49.986;11.618;2022-09-29T17:56:22;13.40;96.10
39925;DHT22;25592;49.986;11.618;2022-09-29T17:59:12;13.40;96.20
39925;DHT22;25592;49.986;11.618;2022-09-29T18:01:58;13.40;96.20
39925;DHT22;25592;49.986;11.618;2022-09-29T18:04:43;13.40;96.30
39925;DHT22;25592;49.986;11.618;2022-09-29T18:07:32;13.40;96.30
39925;DHT22;25592;49.986;11.618;2022-09-29T18:10:34;13.30;96.40
39925;DHT22;25592;49.986;11.618;2022-09-29T18:13:23;13.30;96.40
39925;DHT22;25592;49.986;11.618;2022-09-29T18:16:15;13.30;96.40
39925;DHT22;25592;49.986;11.618;2022-09-29T18:19:01;13.20;96.60
39925;DHT22;25592;49.986;11.618;2022-09-29T18:21:46;13.20;96.70
39925;DHT22;25592;49.986;11.618;2022-09-29T18:24:32;13.30;96.70
39925;DHT22;25592;49.986;11.618;2022-09-29T18:27:18;13.30;96.80
39925;DHT22;25592;49.986;11.618;2022-09-29T18:30:09;13.30;96.80
39925;DHT22;25592;49.986;11.618;2022-09-29T18:33:02;13.20;96.80
39925;DHT22;25592;49.986;11.618;2022-09-29T18:35:52;13.20;96.90
39925;DHT22;25592;49.986;11.618;2022-09-29T18:38:37;13.20;96.90
39925;DHT22;25592;49.986;11.618;2022-09-29T18:41:23;13.10;96.90
39925;DHT22;25592;49.986;11.618;2022-09-29T18:44:16;13.10;97.00
39925;DHT22;25592;49.986;11.618;2022-09-29T18:47:04;13.00;97.10
39925;DHT22;25592;49.986;11.618;2022-09-29T18:49:50;13.10;97.00
39925;DHT22;25592;49.986;11.618;2022-09-29T18:52:35;13.10;97.10
39925;DHT22;25592;49.986;11.618;2022-09-29T18:55:23;13.00;97.20
39925;DHT22;25592;49.986;11.618;2022-09-29T18:58:14;13.10;97.20
39925;DHT22;25592;49.986;11.618;2022-09-29T19:01:00;13.00;97.20
39925;DHT22;25592;49.986;11.618;2022-09-29T19:03:46;13.00;97.30
39925;DHT22;25592;49.986;11.618;2022-09-29T19:06:32;12.90;97.30
39925;DHT22;25592;49.986;11.618;2022-09-29T19:09:17;13.00;97.30
39925;DHT22;25592;49.986;11.618;2022-09-29T19:12:02;13.00;97.30
39925;DHT22;25592;49.986;11.618;2022-09-29T19:14:48;13.00;97.40
39925;DHT22;25592;49.986;11.618;2022-09-29T19:17:33;12.90;97.50
39925;DHT22;25592;49.986;11.618;2022-09-29T19:20:19;13.00;97.50
39925;DHT22;25592;49.986;11.618;2022-09-29T19:23:04;13.00;97.20
39925;DHT22;25592;49.986;11.618;2022-09-29T19:25:51;13.10;97.20
39925;DHT22;25592;49.986;11.618;2022-09-29T19:28:37;13.00;97.30
39925;DHT22;25592;49.986;11.618;2022-09-29T19:31:22;13.10;97.10
39925;DHT22;25592;49.986;11.618;2022-09-29T19:34:08;13.00;97.20
39925;DHT22;25592;49.986;11.618;2022-09-29T19:36:53;13.00;97.30
39925;DHT22;25592;49.986;11.618;2022-09-29T19:39:39;13.00;97.20